»·PEaware :: N2092L KSBA-KSMO

N2092L :: KSBA-KSMO

FLIGHT INFORMATION

Flight Status: Arrived
Operator: Privately registered:
United States
More flights under this callsign
Pilot: Anonymous 19526 (19526)
Aircraft: CESSNA 172 SKYHAWK
(C172)
More flights by this aircraft type
Origin: KSBA Santa Barbara Mun
United States
Destination: KSMO Santa Monica Mun
United States
More flights between these airports :: More routes between these airports
Route: +
File this flight plan on PilotEdge
Remarks:
Altitude:
(Current/Filed)
5,500ft
Speed:
(Current/Filed)
0kts
Departed: 31-Aug-18 12:19 PM
Arrived: 31-Aug-18 12:59 PM
Distance/Time
Traveled:
73nm/0:40
Distance/Time
To Go:
Arrived

Flight Plot

Page will automatically refresh every two minutes.


Map Options




Map Legend


Flown Route
Filed Route
Departure Airport
Arrival Airport
Navaid (VOR, NDB)
Fix

Horizontal Profiles

Position Reports

Time Latitude Longitude Heading Altitude Ground
Speed
31-Aug-18 12:08 34.422664 -119.835593 340 10ft 0kts
31-Aug-18 12:09 34.422664 -119.835593 340 10ft 0kts
31-Aug-18 12:10 34.422664 -119.835593 340 10ft 0kts
31-Aug-18 12:11 34.422664 -119.835593 340 10ft 0kts
31-Aug-18 12:12 34.422664 -119.835593 340 10ft 0kts
31-Aug-18 12:13 34.422719 -119.836654 267 12ft 4kts
31-Aug-18 12:14 34.424071 -119.837537 346 12ft 10kts
31-Aug-18 12:15 34.426907 -119.838420 345 11ft 6kts
31-Aug-18 12:16 34.427051 -119.838464 345 11ft 0kts
31-Aug-18 12:17 34.429656 -119.839256 347 14ft 8kts
31-Aug-18 12:18 34.430675 -119.839822 277 14ft 0kts
31-Aug-18 12:19 34.430416 -119.840249 180 14ft 5kts
31-Aug-18 12:20 34.414061 -119.834830 162 554ft 81kts
31-Aug-18 12:21 34.392522 -119.824540 147 1397ft 85kts
31-Aug-18 12:22 34.380532 -119.799288 117 2244ft 89kts
31-Aug-18 12:23 34.372551 -119.771216 81 2995ft 99kts
31-Aug-18 12:24 34.374426 -119.744881 94 3430ft 105kts
31-Aug-18 12:25 34.371985 -119.709688 107 4102ft 95kts
31-Aug-18 12:26 34.366566 -119.676341 109 4672ft 104kts
31-Aug-18 12:27 34.359681 -119.643581 105 5378ft 100kts
31-Aug-18 12:28 34.355527 -119.606020 101 5599ft 125kts
31-Aug-18 12:29 34.348662 -119.563291 106 5578ft 129kts
31-Aug-18 12:30 34.340714 -119.522814 101 5688ft 121kts
31-Aug-18 12:32 34.328085 -119.482653 110 5530ft 133kts
31-Aug-18 12:33 34.310278 -119.442616 112 5379ft 133kts
31-Aug-18 12:34 34.293014 -119.403044 114 5367ft 135kts
31-Aug-18 12:35 34.275432 -119.363665 114 5489ft 129kts
31-Aug-18 12:36 34.263334 -119.330076 110 5588ft 131kts
31-Aug-18 12:37 34.249147 -119.289406 112 5686ft 131kts
31-Aug-18 12:38 34.231618 -119.249716 116 5642ft 139kts
31-Aug-18 12:39 34.214486 -119.206698 110 5447ft 142kts
31-Aug-18 12:40 34.203699 -119.161049 96 5291ft 144kts
31-Aug-18 12:41 34.197952 -119.113789 95 5162ft 139kts
31-Aug-18 12:42 34.194819 -119.068981 94 5436ft 131kts
31-Aug-18 12:43 34.189812 -119.023082 110 5100ft 139kts
31-Aug-18 12:43 34.175298 -118.988495 126 4641ft 136kts
31-Aug-18 12:45 34.148212 -118.946924 138 4048ft 134kts
31-Aug-18 12:45 34.126626 -118.921585 138 4176ft 129kts
31-Aug-18 12:46 34.098008 -118.888304 136 3630ft 138kts
31-Aug-18 12:48 34.068216 -118.847978 132 3462ft 141kts
31-Aug-18 12:48 34.052184 -118.813787 112 3331ft 145kts
31-Aug-18 12:49 34.040603 -118.766874 106 3036ft 143kts
31-Aug-18 12:50 34.036738 -118.719962 92 2924ft 143kts
31-Aug-18 12:51 34.036692 -118.677103 91 3033ft 132kts
31-Aug-18 12:52 34.039270 -118.633256 89 2810ft 108kts
31-Aug-18 12:53 34.039625 -118.600695 92 2502ft 110kts
31-Aug-18 12:54 34.038171 -118.565342 98 2304ft 106kts
31-Aug-18 12:55 34.034832 -118.530234 101 2301ft 107kts
31-Aug-18 12:56 34.028713 -118.495699 106 1980ft 105kts
31-Aug-18 12:57 34.029653 -118.465417 45 1643ft 105kts
31-Aug-18 12:58 34.042728 -118.442274 141 1159ft 68kts
31-Aug-18 12:59 34.028108 -118.437251 214 619ft 52kts
31-Aug-18 13:00 34.017943 -118.448795 225 152ft 40kts
31-Aug-18 13:01 34.014280 -118.452334 131 134ft 8kts
31-Aug-18 13:02 34.014641 -118.451347 70 135ft 1kts

Navigation Log

Ident Type
1. KSBA Airport
2. KSMO Airport